IBE061A LEVC-LEMD
Flight info
| Callsign | IBE061A |
|---|---|
| Flight time | 0h 30m |
| Altitude | 23000 |
| Route | CENTA N733 PRADO |
| Aircraft | A321/M-SDE3FGHIRWY/LB1 |
Departure
| Time | 2026-05-07 17:40 |
|---|---|
| Airport | Valencia Airport (LEVC) |
Arrival
| Time | 2026-05-07 18:10 |
|---|---|
| Airport | Adolfo Suárez Madrid–Barajas Airport (LEMD) |
| Time | Latitude | Longitude | Altitude | Speed | Heading |
|---|---|---|---|---|---|
| 2026-05-07 17:29 | 39.49048 | -0.47387 | 214 ft | 0 kts | 22° |
| 2026-05-07 17:33 | 39.49025 | -0.47397 | 217 ft | 4 kts | 13° |
| 2026-05-07 17:33 | 39.48998 | -0.47402 | 214 ft | 4 kts | 356° |
| 2026-05-07 17:33 | 39.48974 | -0.47395 | 214 ft | 4 kts | 327° |
| 2026-05-07 17:33 | 39.48961 | -0.47377 | 222 ft | 0 kts | 296° |
| 2026-05-07 17:36 | 39.48961 | -0.47378 | 222 ft | 1 kts | 294° |
| 2026-05-07 17:37 | 39.48951 | -0.47391 | 215 ft | 4 kts | 183° |
| 2026-05-07 17:37 | 39.48925 | -0.47344 | 217 ft | 13 kts | 118° |
| 2026-05-07 17:37 | 39.48880 | -0.47236 | 217 ft | 15 kts | 120° |
| 2026-05-07 17:37 | 39.48788 | -0.47157 | 222 ft | 18 kts | 158° |
| 2026-05-07 17:38 | 39.48702 | -0.47035 | 220 ft | 20 kts | 117° |
| 2026-05-07 17:38 | 39.48635 | -0.46867 | 220 ft | 22 kts | 117° |
| 2026-05-07 17:38 | 39.48538 | -0.46702 | 215 ft | 24 kts | 143° |
| 2026-05-07 17:38 | 39.48407 | -0.46753 | 218 ft | 27 kts | 266° |
| 2026-05-07 17:39 | 39.48476 | -0.46985 | 218 ft | 29 kts | 303° |
| 2026-05-07 17:39 | 39.48580 | -0.47244 | 219 ft | 50 kts | 298° |
| 2026-05-07 17:39 | 39.48851 | -0.47929 | 221 ft | 118 kts | 296° |
| 2026-05-07 17:39 | 39.49316 | -0.49081 | 305 ft | 162 kts | 300° |
| 2026-05-07 17:40 | 39.49842 | -0.50428 | 872 ft | 173 kts | 296° |
| 2026-05-07 17:40 | 39.50373 | -0.51858 | 1429 ft | 180 kts | 297° |
| 2026-05-07 17:40 | 39.50956 | -0.53354 | 1787 ft | 192 kts | 298° |
| 2026-05-07 17:40 | 39.51582 | -0.54940 | 2166 ft | 203 kts | 297° |
| 2026-05-07 17:41 | 39.52237 | -0.56612 | 2542 ft | 215 kts | 297° |
| 2026-05-07 17:41 | 39.52939 | -0.58398 | 2871 ft | 231 kts | 298° |
| 2026-05-07 17:41 | 39.53754 | -0.60274 | 3248 ft | 247 kts | 301° |
| 2026-05-07 17:41 | 39.54635 | -0.62243 | 3717 ft | 259 kts | 300° |
| 2026-05-07 17:42 | 39.55558 | -0.64312 | 4232 ft | 272 kts | 300° |
| 2026-05-07 17:42 | 39.56514 | -0.66463 | 4935 ft | 276 kts | 300° |
| 2026-05-07 17:42 | 39.57476 | -0.68632 | 5706 ft | 278 kts | 300° |
| 2026-05-07 17:42 | 39.58448 | -0.70825 | 6383 ft | 284 kts | 300° |
| 2026-05-07 17:43 | 39.59436 | -0.73056 | 7097 ft | 284 kts | 300° |
| 2026-05-07 17:43 | 39.60412 | -0.75268 | 7891 ft | 282 kts | 300° |
| 2026-05-07 17:43 | 39.61391 | -0.77483 | 8636 ft | 283 kts | 300° |
| 2026-05-07 17:43 | 39.62372 | -0.79706 | 9309 ft | 285 kts | 300° |
| 2026-05-07 17:44 | 39.63365 | -0.81954 | 9955 ft | 289 kts | 300° |
| 2026-05-07 17:44 | 39.64382 | -0.84258 | 10327 ft | 302 kts | 300° |
| 2026-05-07 17:44 | 39.65451 | -0.86683 | 10580 ft | 318 kts | 300° |
| 2026-05-07 17:44 | 39.66580 | -0.89256 | 10809 ft | 335 kts | 300° |
| 2026-05-07 17:45 | 39.67760 | -0.91948 | 11030 ft | 351 kts | 299° |
| 2026-05-07 17:45 | 39.68993 | -0.94752 | 11288 ft | 364 kts | 299° |
| 2026-05-07 17:45 | 39.70252 | -0.97617 | 11785 ft | 368 kts | 299° |
| 2026-05-07 17:45 | 39.71525 | -1.00522 | 12404 ft | 369 kts | 299° |
| 2026-05-07 17:46 | 39.72795 | -1.03431 | 13006 ft | 371 kts | 298° |
| 2026-05-07 17:46 | 39.74063 | -1.06349 | 13626 ft | 372 kts | 298° |
| 2026-05-07 17:46 | 39.75340 | -1.09294 | 14139 ft | 375 kts | 298° |
| 2026-05-07 17:46 | 39.76631 | -1.12259 | 14582 ft | 379 kts | 298° |
| 2026-05-07 17:47 | 39.77493 | -1.14241 | 14900 ft | 381 kts | 298° |
| 2026-05-07 17:47 | 39.78805 | -1.17259 | 15379 ft | 384 kts | 298° |
| 2026-05-07 17:47 | 39.80124 | -1.20290 | 15869 ft | 387 kts | 298° |
| 2026-05-07 17:47 | 39.81451 | -1.23343 | 16356 ft | 389 kts | 298° |
| 2026-05-07 17:48 | 39.82787 | -1.26424 | 16856 ft | 392 kts | 298° |
| 2026-05-07 17:48 | 39.84126 | -1.29525 | 17315 ft | 394 kts | 298° |
| 2026-05-07 17:48 | 39.85478 | -1.32648 | 17773 ft | 397 kts | 298° |
| 2026-05-07 17:48 | 39.86836 | -1.35785 | 18215 ft | 400 kts | 298° |
| 2026-05-07 17:49 | 39.88207 | -1.38965 | 18621 ft | 403 kts | 297° |
| 2026-05-07 17:49 | 39.89585 | -1.42160 | 18999 ft | 406 kts | 297° |
| 2026-05-07 17:49 | 39.90967 | -1.45363 | 19394 ft | 404 kts | 297° |
| 2026-05-07 17:49 | 39.92326 | -1.48517 | 20033 ft | 395 kts | 297° |
| 2026-05-07 17:50 | 39.93657 | -1.51614 | 20727 ft | 390 kts | 297° |
| 2026-05-07 17:50 | 39.94982 | -1.54699 | 21177 ft | 391 kts | 297° |
| 2026-05-07 17:50 | 39.96316 | -1.57804 | 21568 ft | 394 kts | 297° |
| 2026-05-07 17:50 | 39.97661 | -1.60938 | 21923 ft | 397 kts | 296° |
| 2026-05-07 17:51 | 39.99007 | -1.64089 | 22298 ft | 399 kts | 296° |
| 2026-05-07 17:51 | 40.00362 | -1.67263 | 22661 ft | 402 kts | 296° |
| 2026-05-07 17:51 | 40.01724 | -1.70461 | 22991 ft | 404 kts | 296° |
| 2026-05-07 17:51 | 40.03096 | -1.73678 | 23030 ft | 408 kts | 296° |
| 2026-05-07 17:52 | 40.04484 | -1.76921 | 22998 ft | 404 kts | 296° |
| 2026-05-07 17:52 | 40.05830 | -1.80080 | 22751 ft | 392 kts | 296° |
| 2026-05-07 17:52 | 40.07134 | -1.83151 | 22426 ft | 382 kts | 296° |
| 2026-05-07 17:52 | 40.08408 | -1.86147 | 22082 ft | 374 kts | 296° |
| 2026-05-07 17:53 | 40.09655 | -1.89086 | 21737 ft | 368 kts | 296° |
| 2026-05-07 17:53 | 40.10890 | -1.91997 | 21398 ft | 366 kts | 296° |
| 2026-05-07 17:53 | 40.12126 | -1.94897 | 21059 ft | 363 kts | 296° |
| 2026-05-07 17:53 | 40.13333 | -1.97737 | 20731 ft | 361 kts | 296° |
| 2026-05-07 17:54 | 40.14544 | -2.00595 | 20403 ft | 358 kts | 296° |
| 2026-05-07 17:54 | 40.15742 | -2.03439 | 20065 ft | 356 kts | 296° |
| 2026-05-07 17:54 | 40.16937 | -2.06271 | 19668 ft | 354 kts | 296° |
| 2026-05-07 17:54 | 40.18121 | -2.09068 | 19263 ft | 351 kts | 296° |
| 2026-05-07 17:55 | 40.19299 | -2.11859 | 18856 ft | 349 kts | 296° |
| 2026-05-07 17:55 | 40.20483 | -2.14659 | 18441 ft | 346 kts | 296° |
| 2026-05-07 17:55 | 40.21633 | -2.17374 | 18002 ft | 344 kts | 296° |
| 2026-05-07 17:55 | 40.22784 | -2.20106 | 17506 ft | 341 kts | 296° |
| 2026-05-07 17:56 | 40.23925 | -2.22820 | 17025 ft | 339 kts | 296° |
| 2026-05-07 17:56 | 40.25057 | -2.25508 | 16558 ft | 335 kts | 296° |
| 2026-05-07 17:56 | 40.26023 | -2.28269 | 16088 ft | 335 kts | 284° |
| 2026-05-07 17:56 | 40.26289 | -2.31287 | 15654 ft | 337 kts | 269° |
| 2026-05-07 17:57 | 40.26293 | -2.34365 | 15228 ft | 338 kts | 269° |
| 2026-05-07 17:57 | 40.26283 | -2.36435 | 14949 ft | 337 kts | 268° |
| 2026-05-07 17:57 | 40.26264 | -2.39802 | 14500 ft | 335 kts | 269° |
| 2026-05-07 17:57 | 40.26256 | -2.42841 | 14093 ft | 332 kts | 269° |
| 2026-05-07 17:58 | 40.26243 | -2.45863 | 13683 ft | 331 kts | 269° |
| 2026-05-07 17:58 | 40.26228 | -2.48863 | 13220 ft | 329 kts | 269° |
| 2026-05-07 17:58 | 40.26219 | -2.51856 | 12774 ft | 328 kts | 269° |
| 2026-05-07 17:58 | 40.26209 | -2.54843 | 12331 ft | 327 kts | 269° |
| 2026-05-07 17:59 | 40.26199 | -2.57812 | 11899 ft | 326 kts | 269° |
| 2026-05-07 17:59 | 40.26182 | -2.60814 | 11454 ft | 325 kts | 268° |
| 2026-05-07 17:59 | 40.26166 | -2.63775 | 11025 ft | 324 kts | 269° |
| 2026-05-07 17:59 | 40.26153 | -2.66719 | 10605 ft | 323 kts | 269° |
| 2026-05-07 18:00 | 40.26137 | -2.69656 | 10189 ft | 322 kts | 269° |
| 2026-05-07 18:00 | 40.26121 | -2.72587 | 9778 ft | 321 kts | 268° |
| 2026-05-07 18:00 | 40.26103 | -2.75499 | 9331 ft | 319 kts | 268° |
| 2026-05-07 18:00 | 40.26082 | -2.78385 | 8894 ft | 317 kts | 268° |
| 2026-05-07 18:01 | 40.26058 | -2.81272 | 8449 ft | 316 kts | 268° |
| 2026-05-07 18:01 | 40.26035 | -2.84144 | 8075 ft | 314 kts | 268° |
| 2026-05-07 18:01 | 40.26021 | -2.87001 | 7972 ft | 315 kts | 268° |
| 2026-05-07 18:01 | 40.26005 | -2.89874 | 7974 ft | 314 kts | 268° |
| 2026-05-07 18:02 | 40.25965 | -2.95592 | 7983 ft | 314 kts | 268° |
| 2026-05-07 18:02 | 40.25941 | -2.98460 | 7995 ft | 314 kts | 268° |
| 2026-05-07 18:02 | 40.25918 | -3.01313 | 7992 ft | 314 kts | 268° |
| 2026-05-07 18:03 | 40.25893 | -3.04167 | 7986 ft | 314 kts | 268° |
| 2026-05-07 18:03 | 40.25870 | -3.07062 | 7989 ft | 314 kts | 268° |
| 2026-05-07 18:03 | 40.25850 | -3.09916 | 7987 ft | 314 kts | 268° |
| 2026-05-07 18:03 | 40.25827 | -3.12778 | 7984 ft | 313 kts | 268° |
| 2026-05-07 18:04 | 40.25778 | -3.15624 | 7928 ft | 313 kts | 266° |
| 2026-05-07 18:04 | 40.25709 | -3.18473 | 7735 ft | 311 kts | 266° |
| 2026-05-07 18:04 | 40.25640 | -3.21254 | 7489 ft | 300 kts | 266° |
| 2026-05-07 18:04 | 40.25572 | -3.23951 | 7235 ft | 291 kts | 266° |
| 2026-05-07 18:05 | 40.25508 | -3.26556 | 6979 ft | 282 kts | 266° |
| 2026-05-07 18:05 | 40.25441 | -3.29125 | 6722 ft | 275 kts | 266° |
| 2026-05-07 18:05 | 40.25379 | -3.31557 | 6470 ft | 268 kts | 267° |
| 2026-05-07 18:05 | 40.25589 | -3.33947 | 6204 ft | 264 kts | 288° |
| 2026-05-07 18:06 | 40.26545 | -3.35966 | 5925 ft | 260 kts | 315° |
| 2026-05-07 18:06 | 40.27969 | -3.37366 | 5666 ft | 255 kts | 326° |
| 2026-05-07 18:06 | 40.29467 | -3.38579 | 5407 ft | 251 kts | 328° |
| 2026-05-07 18:06 | 40.30940 | -3.39810 | 5158 ft | 251 kts | 325° |
| 2026-05-07 18:07 | 40.32330 | -3.41174 | 4955 ft | 250 kts | 320° |
| 2026-05-07 18:07 | 40.33704 | -3.42591 | 4930 ft | 250 kts | 322° |
| 2026-05-07 18:07 | 40.35078 | -3.43981 | 4773 ft | 250 kts | 322° |
| 2026-05-07 18:07 | 40.36447 | -3.45372 | 4456 ft | 248 kts | 322° |
| 2026-05-07 18:08 | 40.37812 | -3.46756 | 4112 ft | 247 kts | 322° |
| 2026-05-07 18:08 | 40.39182 | -3.48146 | 3772 ft | 246 kts | 322° |
| 2026-05-07 18:08 | 40.40526 | -3.49510 | 3447 ft | 246 kts | 322° |
| 2026-05-07 18:08 | 40.41847 | -3.50853 | 3109 ft | 237 kts | 322° |
| 2026-05-07 18:09 | 40.43119 | -3.52145 | 2780 ft | 220 kts | 323° |
| 2026-05-07 18:09 | 40.44281 | -3.53325 | 2495 ft | 200 kts | 324° |
| 2026-05-07 18:09 | 40.45314 | -3.54374 | 2254 ft | 177 kts | 323° |
| 2026-05-07 18:09 | 40.46238 | -3.55319 | 2003 ft | 160 kts | 322° |
| 2026-05-07 18:10 | 40.47053 | -3.56131 | 1982 ft | 130 kts | 323° |
| 2026-05-07 18:10 | 40.47663 | -3.56764 | 2002 ft | 95 kts | 320° |
| 2026-05-07 18:10 | 40.48015 | -3.57126 | 2009 ft | 38 kts | 323° |
| 2026-05-07 18:10 | 40.48141 | -3.57337 | 2008 ft | 10 kts | 291° |
| 2026-05-07 18:11 | 40.48169 | -3.57424 | 2007 ft | 11 kts | 294° |
| 2026-05-07 18:11 | 40.48194 | -3.57490 | 2005 ft | 13 kts | 298° |
| 2026-05-07 18:11 | 40.48196 | -3.57653 | 2002 ft | 16 kts | 291° |
| 2026-05-07 18:11 | 40.48276 | -3.57764 | 1999 ft | 18 kts | 323° |
| 2026-05-07 18:12 | 40.48381 | -3.57868 | 1997 ft | 20 kts | 324° |
| 2026-05-07 18:12 | 40.48500 | -3.57989 | 2004 ft | 24 kts | 298° |
| 2026-05-07 18:12 | 40.48510 | -3.58217 | 2013 ft | 17 kts | 267° |
| 2026-05-07 18:12 | 40.48511 | -3.58395 | 2020 ft | 22 kts | 270° |
| 2026-05-07 18:13 | 40.48512 | -3.58611 | 2027 ft | 24 kts | 270° |
| 2026-05-07 18:13 | 40.48513 | -3.58755 | 2028 ft | 11 kts | 270° |
| 2026-05-07 18:13 | 40.48558 | -3.58813 | 2028 ft | 13 kts | 2° |
| 2026-05-07 18:13 | 40.48658 | -3.58805 | 2036 ft | 16 kts | 2° |
| 2026-05-07 18:14 | 40.48758 | -3.58806 | 2033 ft | 8 kts | 359° |
| 2026-05-07 18:14 | 40.48794 | -3.58822 | 2033 ft | 5 kts | 308° |
| 2026-05-07 18:14 | 40.48799 | -3.58885 | 2028 ft | 9 kts | 267° |
| 2026-05-07 18:14 | 40.48798 | -3.58944 | 2034 ft | 6 kts | 269° |
| 2026-05-07 18:15 | 40.48797 | -3.58962 | 2034 ft | 0 kts | 270° |